createdAt,value
2022-11-07T00:01:18.637Z,2.10
2022-11-07T00:03:45.563Z,2.28
2022-11-07T00:06:12.423Z,2.50
2022-11-07T00:08:39.284Z,3.08
2022-11-07T00:11:06.537Z,3.13
2022-11-07T00:13:33.520Z,3.45
2022-11-07T00:16:01.652Z,2.80
2022-11-07T00:18:28.916Z,1.45
2022-11-07T00:20:55.947Z,3.95
2022-11-07T00:23:22.704Z,3.03
2022-11-07T00:25:49.391Z,3.75
2022-11-07T00:28:16.181Z,2.47
2022-11-07T00:30:43.831Z,3.33
2022-11-07T00:33:10.739Z,2.95
2022-11-07T00:35:42.223Z,3.83
2022-11-07T00:38:09.041Z,2.20
2022-11-07T00:40:35.814Z,2.67
2022-11-07T00:43:02.596Z,2.30
2022-11-07T00:45:29.308Z,2.50
2022-11-07T00:47:56.048Z,2.38
2022-11-07T00:50:22.802Z,2.55
2022-11-07T00:52:49.547Z,2.20
2022-11-07T00:55:16.360Z,2.25
2022-11-07T00:57:43.174Z,3.03
2022-11-07T01:00:10.722Z,3.25
2022-11-07T01:02:37.573Z,2.78
2022-11-07T01:05:10.546Z,2.92
2022-11-07T01:07:38.416Z,2.53
2022-11-07T01:10:06.106Z,2.92
2022-11-07T01:12:36.182Z,3.47
2022-11-07T01:15:04.064Z,3.50
2022-11-07T01:17:30.851Z,2.95
2022-11-07T01:19:57.620Z,3.25
2022-11-07T01:22:24.314Z,4.40
2022-11-07T01:24:51.059Z,3.17
2022-11-07T01:27:17.839Z,2.70
2022-11-07T01:29:44.589Z,2.60
2022-11-07T01:32:11.300Z,2.28
2022-11-07T01:34:38.164Z,2.83
2022-11-07T01:37:04.980Z,2.55
2022-11-07T01:39:31.809Z,2.63
2022-11-07T01:41:58.543Z,4.40
2022-11-07T01:44:25.287Z,2.72
2022-11-07T01:46:54.970Z,2.83
2022-11-07T01:49:26.415Z,3.60
2022-11-07T01:51:56.299Z,2.72
2022-11-07T01:54:26.835Z,2.15
2022-11-07T01:56:54.407Z,2.95
2022-11-07T01:59:24.708Z,4.20
2022-11-07T02:01:51.798Z,2.60
2022-11-07T02:04:18.853Z,4.53
2022-11-07T02:06:47.835Z,2.45
2022-11-07T02:09:15.024Z,3.20
2022-11-07T02:11:41.892Z,3.17
2022-11-07T02:14:08.650Z,3.05
2022-11-07T02:16:36.311Z,2.65
2022-11-07T02:19:05.154Z,2.63
2022-11-07T02:21:48.651Z,3.10
2022-11-07T02:24:22.539Z,2.80
2022-11-07T02:26:49.476Z,2.75
2022-11-07T02:29:16.180Z,2.97
2022-11-07T02:31:42.992Z,2.92
2022-11-07T02:34:09.717Z,2.97
2022-11-07T02:36:36.541Z,2.95
2022-11-07T02:39:03.534Z,2.97
2022-11-07T02:41:35.272Z,2.67
2022-11-07T02:44:06.680Z,2.10
2022-11-07T02:46:33.719Z,3.45
2022-11-07T02:49:01.585Z,3.35
2022-11-07T02:51:28.962Z,3.00
2022-11-07T02:53:55.746Z,2.17
2022-11-07T02:56:23.037Z,2.92
2022-11-07T02:58:50.082Z,2.20
2022-11-07T03:01:16.920Z,2.67
2022-11-07T03:03:46.263Z,2.72
2022-11-07T03:06:15.761Z,3.17
2022-11-07T03:08:43.252Z,3.22
2022-11-07T03:11:11.006Z,4.05
2022-11-07T03:13:37.958Z,2.53
2022-11-07T03:16:09.813Z,3.33
2022-11-07T03:18:37.095Z,4.13
2022-11-07T03:21:04.754Z,3.95
2022-11-07T03:23:31.843Z,3.67
2022-11-07T03:25:58.577Z,3.17
2022-11-07T03:28:25.317Z,3.05
2022-11-07T03:30:52.289Z,2.83
2022-11-07T03:33:19.132Z,3.20
2022-11-07T03:35:46.046Z,2.42
2022-11-07T03:38:12.964Z,2.03
2022-11-07T03:40:39.737Z,2.80
2022-11-07T03:43:06.548Z,2.30
2022-11-07T03:45:33.246Z,2.28
2022-11-07T03:47:59.998Z,2.70
2022-11-07T03:50:26.763Z,2.40
2022-11-07T03:52:53.587Z,2.80
2022-11-07T03:55:20.406Z,2.05
2022-11-07T03:57:47.697Z,2.17
2022-11-07T04:00:15.313Z,3.13
2022-11-07T04:02:43.040Z,2.95
2022-11-07T04:05:10.258Z,2.42
2022-11-07T04:07:37.057Z,2.30
2022-11-07T04:10:04.190Z,2.28
2022-11-07T04:12:49.835Z,3.00
2022-11-07T04:15:35.495Z,3.67
2022-11-07T04:18:02.342Z,3.33
2022-11-07T04:20:29.411Z,2.70
2022-11-07T04:22:56.212Z,2.60
2022-11-07T04:25:42.898Z,2.15
2022-11-07T04:28:09.707Z,2.33
2022-11-07T04:30:36.397Z,1.85
2022-11-07T04:33:03.227Z,2.45
2022-11-07T04:35:32.781Z,1.95
2022-11-07T04:38:00.780Z,2.83
2022-11-07T04:40:28.889Z,2.80
2022-11-07T04:42:55.962Z,2.78
2022-11-07T04:45:22.865Z,2.78
2022-11-07T04:47:49.927Z,2.92
2022-11-07T04:50:18.562Z,2.85
2022-11-07T04:52:46.877Z,2.90
2022-11-07T04:55:20.416Z,2.10
2022-11-07T04:57:47.431Z,2.25
2022-11-07T05:00:14.899Z,2.53
2022-11-07T05:02:41.818Z,2.22
2022-11-07T05:05:09.141Z,2.90
2022-11-07T05:07:35.980Z,2.60
2022-11-07T05:10:02.893Z,3.30
2022-11-07T05:12:29.691Z,2.88
2022-11-07T05:14:56.414Z,2.97
2022-11-07T05:17:27.798Z,2.45
2022-11-07T05:19:54.911Z,2.22
2022-11-07T05:22:39.829Z,2.40
2022-11-07T05:25:07.228Z,2.63
2022-11-07T05:27:33.962Z,2.45
2022-11-07T05:30:00.738Z,2.45
2022-11-07T05:32:27.784Z,2.42
2022-11-07T05:34:54.553Z,2.90
2022-11-07T05:37:21.319Z,2.13
2022-11-07T05:39:51.062Z,2.38
2022-11-07T05:42:21.560Z,2.60
2022-11-07T05:44:48.319Z,2.05
2022-11-07T05:47:15.169Z,2.10
2022-11-07T05:49:41.914Z,2.53
2022-11-07T05:52:08.690Z,2.92
2022-11-07T05:54:35.421Z,2.53
2022-11-07T05:57:02.236Z,2.90
2022-11-07T05:59:28.984Z,2.70
2022-11-07T06:01:55.808Z,2.03
2022-11-07T06:04:22.756Z,2.88
2022-11-07T06:06:49.529Z,2.47
2022-11-07T06:09:16.391Z,2.47
2022-11-07T06:11:43.250Z,2.47
2022-11-07T06:14:10.111Z,2.78
2022-11-07T06:16:36.929Z,3.17
2022-11-07T06:19:03.727Z,2.28
2022-11-07T06:21:30.861Z,1.48
2022-11-07T06:23:58.553Z,2.35
2022-11-07T06:26:25.354Z,2.17
2022-11-07T06:28:52.314Z,2.88
2022-11-07T06:31:19.462Z,3.67
2022-11-07T06:33:46.219Z,3.22
2022-11-07T06:36:13.099Z,2.22
2022-11-07T06:38:40.307Z,1.92
2022-11-07T06:41:09.155Z,2.28
2022-11-07T06:43:36.424Z,1.52
2022-11-07T06:46:08.835Z,2.20
2022-11-07T06:48:35.691Z,1.85
2022-11-07T06:51:04.187Z,1.90
2022-11-07T06:53:31.012Z,1.95
2022-11-07T06:55:59.850Z,2.00
2022-11-07T06:58:26.750Z,2.40
2022-11-07T07:00:53.776Z,1.80
2022-11-07T07:03:20.582Z,2.20
2022-11-07T07:05:47.348Z,1.83
2022-11-07T07:08:14.957Z,1.98
2022-11-07T07:10:43.895Z,1.98
2022-11-07T07:13:13.272Z,1.63
2022-11-07T07:15:50.405Z,2.08
2022-11-07T07:18:19.429Z,1.83
2022-11-07T07:20:47.205Z,2.38
2022-11-07T07:23:13.954Z,2.17
2022-11-07T07:25:40.645Z,1.95
2022-11-07T07:28:07.397Z,2.40
2022-11-07T07:30:34.121Z,1.77
2022-11-07T07:33:00.943Z,2.30
2022-11-07T07:35:27.817Z,1.98
2022-11-07T07:37:54.614Z,2.72
2022-11-07T07:40:21.516Z,1.70
2022-11-07T07:42:48.438Z,2.38
2022-11-07T07:45:15.720Z,2.28
2022-11-07T07:47:42.524Z,2.85
2022-11-07T07:50:11.206Z,3.63
2022-11-07T07:52:38.456Z,2.60
2022-11-07T07:55:08.020Z,2.20
2022-11-07T07:57:42.405Z,2.13
2022-11-07T08:00:11.648Z,2.20
2022-11-07T08:02:44.211Z,1.80
2022-11-07T08:05:12.865Z,1.70
2022-11-07T08:07:50.679Z,2.10
2022-11-07T08:13:06.036Z,1.95
2022-11-07T08:15:32.864Z,2.67
2022-11-07T08:18:03.950Z,1.60
2022-11-07T08:20:30.845Z,2.00
2022-11-07T08:23:12.872Z,1.88
2022-11-07T08:25:43.325Z,1.70
2022-11-07T08:28:10.081Z,1.92
2022-11-07T08:30:36.934Z,1.60
2022-11-07T08:33:03.865Z,1.95
2022-11-07T08:35:31.475Z,1.92
2022-11-07T08:37:59.214Z,2.47
2022-11-07T08:40:26.766Z,1.90
2022-11-07T08:42:53.539Z,2.28
2022-11-07T08:45:20.463Z,1.52
2022-11-07T08:47:47.197Z,1.38
2022-11-07T08:50:14.107Z,1.60
2022-11-07T08:52:40.895Z,1.67
2022-11-07T08:55:07.942Z,1.73
2022-11-07T08:57:35.039Z,1.25
2022-11-07T09:00:05.638Z,1.20
2022-11-07T09:03:18.374Z,1.70
2022-11-07T09:05:19.481Z,1.65
2022-11-07T09:07:46.253Z,1.85
2022-11-07T09:10:13.314Z,1.80
2022-11-07T09:12:47.490Z,1.30
2022-11-07T09:15:14.739Z,2.38
2022-11-07T09:17:41.987Z,2.28
2022-11-07T09:20:10.317Z,2.53
2022-11-07T09:22:37.170Z,2.40
2022-11-07T09:25:04.265Z,2.28
2022-11-07T09:27:31.043Z,2.35
2022-11-07T09:29:57.860Z,2.45
2022-11-07T09:32:43.738Z,2.60
2022-11-07T09:35:11.314Z,1.75
2022-11-07T09:37:39.264Z,1.95
2022-11-07T09:40:07.590Z,1.77
2022-11-07T09:43:05.385Z,1.75
2022-11-07T09:45:38.874Z,1.95
2022-11-07T09:48:06.848Z,1.92
2022-11-07T09:50:39.260Z,1.48
2022-11-07T09:53:12.697Z,1.77
2022-11-07T09:56:00.024Z,1.58
2022-11-07T09:58:34.356Z,1.88
2022-11-07T10:01:06.067Z,2.45
2022-11-07T10:03:37.897Z,1.83
2022-11-07T10:06:34.177Z,1.80
2022-11-07T10:09:25.234Z,1.90
2022-11-07T10:12:43.240Z,2.63
2022-11-07T10:15:46.590Z,2.15
2022-11-07T10:18:21.390Z,2.83
2022-11-07T10:21:23.108Z,2.33
2022-11-07T10:24:13.061Z,2.67
2022-11-07T10:26:42.892Z,2.33
2022-11-07T10:29:15.894Z,1.70
2022-11-07T10:31:51.912Z,2.75
2022-11-07T10:34:37.853Z,3.10
2022-11-07T10:37:04.965Z,3.03
2022-11-07T10:39:32.351Z,2.35
2022-11-07T10:42:00.854Z,2.20
2022-11-07T10:44:29.383Z,2.55
2022-11-07T10:46:56.365Z,2.30
2022-11-07T10:49:24.375Z,2.03
2022-11-07T10:51:51.650Z,2.42
2022-11-07T10:54:31.673Z,1.90
2022-11-07T10:57:04.138Z,1.60
2022-11-07T10:59:36.568Z,1.75
2022-11-07T11:02:31.044Z,2.20
2022-11-07T11:05:00.576Z,1.88
2022-11-07T11:07:36.916Z,1.48
2022-11-07T11:10:04.831Z,1.60
2022-11-07T11:12:34.716Z,1.77
2022-11-07T11:15:12.147Z,1.97
2022-11-07T11:17:41.881Z,1.90
2022-11-07T11:20:28.795Z,1.15
2022-11-07T11:22:55.825Z,1.30
2022-11-07T11:25:23.929Z,1.30
2022-11-07T11:27:56.729Z,1.42
2022-11-07T11:30:24.188Z,1.40
2022-11-07T11:33:01.773Z,1.65
2022-11-07T11:35:44.093Z,0.98
2022-11-07T11:38:29.010Z,1.20
2022-11-07T11:41:07.570Z,0.90
2022-11-07T11:43:46.771Z,1.45
2022-11-07T11:46:53.270Z,1.55
2022-11-07T11:49:24.616Z,1.95
2022-11-07T11:51:56.841Z,1.85
2022-11-07T11:54:23.587Z,1.30
2022-11-07T11:57:01.237Z,1.60
2022-11-07T11:59:30.619Z,1.85
2022-11-07T12:02:26.637Z,2.00
2022-11-07T12:05:08.861Z,2.03
2022-11-07T12:07:54.224Z,1.70
2022-11-07T12:10:36.120Z,2.10
2022-11-07T12:13:12.102Z,2.47
2022-11-07T12:15:48.991Z,3.25
2022-11-07T12:18:31.503Z,1.90
2022-11-07T12:21:21.531Z,1.95
2022-11-07T12:23:57.997Z,1.75
2022-11-07T12:27:02.523Z,2.00
2022-11-07T12:29:39.776Z,2.78
2022-11-07T12:32:22.451Z,2.38
2022-11-07T12:35:02.766Z,1.98
2022-11-07T12:37:45.134Z,1.85
2022-11-07T12:40:45.779Z,2.67
2022-11-07T12:43:18.640Z,1.58
2022-11-07T12:45:47.122Z,1.85
2022-11-07T12:48:19.919Z,1.52
2022-11-07T12:51:07.233Z,1.48
2022-11-07T12:53:46.928Z,1.60
2022-11-07T12:56:17.988Z,1.83
2022-11-07T13:01:18.751Z,1.65
2022-11-07T13:04:24.631Z,1.85
2022-11-07T13:06:57.341Z,1.77
2022-11-07T13:09:33.266Z,1.85
2022-11-07T13:12:26.015Z,2.40
2022-11-07T13:14:53.271Z,1.77
2022-11-07T13:17:24.152Z,2.97
2022-11-07T13:22:37.866Z,2.22
2022-11-07T13:25:11.893Z,3.15
2022-11-07T13:27:57.892Z,2.55
2022-11-07T13:30:30.563Z,2.10
2022-11-07T13:32:59.203Z,2.40
2022-11-07T13:35:29.805Z,2.53
2022-11-07T13:37:59.134Z,2.08
2022-11-07T13:40:38.266Z,2.40
2022-11-07T13:43:12.933Z,2.00
2022-11-07T13:45:48.105Z,1.48
2022-11-07T13:48:48.897Z,2.20
2022-11-07T13:51:36.897Z,1.83
2022-11-07T13:54:39.961Z,2.58
2022-11-07T13:57:19.791Z,2.40
2022-11-07T14:00:00.024Z,2.63
2022-11-07T14:02:32.074Z,2.27
2022-11-07T14:05:17.635Z,2.30
2022-11-07T14:07:50.972Z,1.83
2022-11-07T14:10:25.007Z,2.40
2022-11-07T14:13:13.571Z,1.80
2022-11-07T14:15:47.608Z,1.75
2022-11-07T14:18:16.346Z,2.67
2022-11-07T14:20:55.246Z,2.08
2022-11-07T14:23:25.997Z,1.70
2022-11-07T14:26:17.949Z,2.20
2022-11-07T14:28:44.820Z,2.40
2022-11-07T14:31:18.146Z,2.28
2022-11-07T14:33:50.325Z,1.85
2022-11-07T14:36:18.321Z,1.75
2022-11-07T14:38:48.047Z,1.83
2022-11-07T14:41:15.317Z,2.15
2022-11-07T14:43:42.157Z,1.90
2022-11-07T14:46:13.931Z,1.70
2022-11-07T14:48:43.114Z,1.70
2022-11-07T14:51:13.326Z,1.30
2022-11-07T14:54:09.229Z,1.80
2022-11-07T14:56:39.627Z,1.88
2022-11-07T14:59:12.312Z,2.33
2022-11-07T15:01:39.643Z,1.80
2022-11-07T15:04:24.006Z,2.45
2022-11-07T15:06:50.889Z,2.38
2022-11-07T15:09:17.768Z,2.08
2022-11-07T15:11:57.178Z,1.42
2022-11-07T15:14:30.026Z,2.17
2022-11-07T15:16:58.621Z,1.70
2022-11-07T15:19:25.605Z,1.85
2022-11-07T15:21:58.450Z,1.77
2022-11-07T15:24:45.531Z,2.65
2022-11-07T15:27:36.984Z,1.88
2022-11-07T15:30:05.718Z,2.20
2022-11-07T15:32:41.224Z,3.28
2022-11-07T15:35:43.113Z,2.92
2022-11-07T15:38:02.886Z,2.47
2022-11-07T15:40:29.834Z,2.45
2022-11-07T15:42:57.951Z,2.65
2022-11-07T15:45:24.851Z,4.25
2022-11-07T15:47:51.971Z,2.80
2022-11-07T15:50:19.784Z,2.47
2022-11-07T15:52:47.397Z,2.40
2022-11-07T15:55:22.611Z,3.55
2022-11-07T15:57:51.701Z,3.30
2022-11-07T16:00:23.833Z,2.15
2022-11-07T16:02:50.937Z,2.65
2022-11-07T16:05:18.778Z,2.67
2022-11-07T16:07:45.951Z,2.85
2022-11-07T16:10:25.168Z,3.30
2022-11-07T16:12:52.660Z,3.45
2022-11-07T16:15:22.066Z,2.72
2022-11-07T16:17:49.311Z,4.30
2022-11-07T16:20:21.807Z,3.20
2022-11-07T16:22:49.685Z,3.17
2022-11-07T16:25:22.121Z,2.75
2022-11-07T16:27:59.598Z,2.50
2022-11-07T16:30:27.838Z,2.10
2022-11-07T16:32:54.858Z,2.63
2022-11-07T16:35:22.156Z,2.50
2022-11-07T16:37:49.075Z,2.30
2022-11-07T16:40:18.993Z,2.70
2022-11-07T16:42:46.293Z,2.22
2022-11-07T16:45:19.248Z,2.20
2022-11-07T16:47:46.397Z,2.55
2022-11-07T16:50:14.782Z,2.50
2022-11-07T16:52:41.739Z,2.13
2022-11-07T16:55:15.171Z,2.60
2022-11-07T16:57:42.107Z,1.95
2022-11-07T17:00:19.625Z,2.10
2022-11-07T17:02:46.555Z,2.42
2022-11-07T17:05:14.358Z,2.47
2022-11-07T17:07:43.826Z,2.20
2022-11-07T17:10:15.608Z,2.88
2022-11-07T17:12:42.455Z,2.22
2022-11-07T17:15:09.816Z,2.25
2022-11-07T17:17:36.727Z,2.85
2022-11-07T17:20:04.247Z,2.50
2022-11-07T17:22:31.088Z,2.38
2022-11-07T17:24:57.832Z,2.50
2022-11-07T17:27:25.798Z,2.78
2022-11-07T17:29:53.646Z,1.95
2022-11-07T17:32:20.719Z,2.17
2022-11-07T17:34:59.215Z,2.15
2022-11-07T17:37:35.505Z,2.85
2022-11-07T17:40:02.500Z,2.75
2022-11-07T17:42:33.745Z,2.35
2022-11-07T17:45:03.999Z,2.45
2022-11-07T17:47:34.386Z,2.63
2022-11-07T17:50:01.872Z,2.55
2022-11-07T17:52:28.732Z,1.90
2022-11-07T17:54:55.607Z,2.50
2022-11-07T17:57:22.492Z,2.78
2022-11-07T17:59:49.457Z,2.20
2022-11-07T18:02:18.157Z,2.28
2022-11-07T18:04:45.948Z,1.92
2022-11-07T18:07:12.968Z,2.05
2022-11-07T18:09:43.084Z,1.70
2022-11-07T18:12:10.742Z,2.13
2022-11-07T18:14:37.776Z,1.90
2022-11-07T18:17:05.326Z,2.33
2022-11-07T18:19:32.366Z,2.33
2022-11-07T18:21:59.420Z,2.00
2022-11-07T18:24:26.199Z,2.05
2022-11-07T18:26:53.251Z,1.50
2022-11-07T18:29:20.068Z,1.83
2022-11-07T18:31:51.814Z,1.60
2022-11-07T18:34:19.757Z,1.98
2022-11-07T18:36:46.729Z,2.40
2022-11-07T18:39:24.130Z,2.55
2022-11-07T18:41:52.392Z,3.35
2022-11-07T18:44:19.503Z,3.50
2022-11-07T18:46:47.094Z,2.97
2022-11-07T18:49:15.465Z,3.63
2022-11-07T18:51:45.176Z,3.47
2022-11-07T18:54:13.935Z,3.03
2022-11-07T18:56:41.546Z,2.70
2022-11-07T18:59:08.409Z,3.53
2022-11-07T19:01:35.348Z,5.00
2022-11-07T19:04:05.650Z,4.90
2022-11-07T19:06:33.096Z,3.97
2022-11-07T19:08:59.986Z,5.57
2022-11-07T19:11:29.480Z,4.55
2022-11-07T19:13:59.270Z,5.07
2022-11-07T19:16:26.270Z,5.35
2022-11-07T19:18:53.123Z,6.20
2022-11-07T19:21:21.487Z,4.85
2022-11-07T19:23:50.047Z,5.13
2022-11-07T19:26:19.198Z,5.10
2022-11-07T19:28:46.924Z,5.05
2022-11-07T19:31:14.392Z,5.13
2022-11-07T19:33:41.984Z,4.95
2022-11-07T19:36:13.510Z,5.05
2022-11-07T19:38:41.101Z,4.07
2022-11-07T19:41:09.126Z,3.70
2022-11-07T19:43:36.782Z,4.78
2022-11-07T19:46:08.471Z,4.43
2022-11-07T19:48:35.672Z,4.45
2022-11-07T19:51:09.583Z,3.47
2022-11-07T19:53:36.649Z,3.33
2022-11-07T19:56:08.982Z,4.50
2022-11-07T19:58:39.147Z,4.03
2022-11-07T20:01:16.556Z,3.80
2022-11-07T20:03:47.907Z,3.40
2022-11-07T20:06:16.869Z,3.97
2022-11-07T20:08:46.399Z,3.70
2022-11-07T20:11:18.666Z,3.58
2022-11-07T20:13:45.920Z,4.22
2022-11-07T20:16:12.732Z,4.57
2022-11-07T20:18:40.773Z,3.78
2022-11-07T20:21:19.827Z,4.75
2022-11-07T20:23:47.811Z,5.05
2022-11-07T20:26:17.541Z,5.50
2022-11-07T20:28:44.686Z,4.78
2022-11-07T20:31:13.596Z,5.07
2022-11-07T20:33:40.410Z,5.82
2022-11-07T20:36:09.615Z,5.03
2022-11-07T20:38:37.088Z,5.40
2022-11-07T20:41:04.527Z,4.88
2022-11-07T20:43:34.033Z,4.60
2022-11-07T20:46:12.068Z,5.57
2022-11-07T20:48:39.418Z,4.95
2022-11-07T20:51:10.355Z,4.85
2022-11-07T20:56:05.543Z,5.72
2022-11-07T20:58:38.191Z,5.93
2022-11-07T21:01:06.393Z,6.22
2022-11-07T21:03:34.232Z,5.93
2022-11-07T21:06:01.584Z,6.45
2022-11-07T21:08:30.812Z,5.25
2022-11-07T21:11:01.370Z,5.88
2022-11-07T21:13:28.087Z,6.20
2022-11-07T21:15:55.405Z,6.20
2022-11-07T21:18:22.145Z,6.53
2022-11-07T21:20:49.049Z,6.55
2022-11-07T21:23:16.799Z,5.70
2022-11-07T21:25:47.861Z,5.00
2022-11-07T21:28:19.783Z,6.95
2022-11-07T21:31:08.410Z,6.35
2022-11-07T21:33:35.312Z,4.25
2022-11-07T21:36:02.534Z,5.32
2022-11-07T21:38:29.611Z,5.20
2022-11-07T21:40:56.365Z,5.32
2022-11-07T21:43:23.169Z,6.28
2022-11-07T21:45:49.999Z,5.20
2022-11-07T21:48:16.773Z,5.53
2022-11-07T21:50:45.073Z,5.82
2022-11-07T21:53:12.282Z,8.23
2022-11-07T21:55:39.567Z,7.32
2022-11-07T21:58:06.506Z,7.35
2022-11-07T22:00:36.618Z,7.28
2022-11-07T22:03:04.562Z,6.03
2022-11-07T22:05:31.544Z,6.63
2022-11-07T22:07:58.773Z,6.97
2022-11-07T22:10:26.870Z,7.47
2022-11-07T22:12:53.701Z,7.05
2022-11-07T22:15:20.591Z,6.90
2022-11-07T22:17:47.951Z,7.63
2022-11-07T22:20:14.869Z,7.22
2022-11-07T22:22:42.307Z,6.72
2022-11-07T22:25:09.488Z,7.70
2022-11-07T22:27:37.422Z,6.53
2022-11-07T22:30:05.641Z,6.03
2022-11-07T22:32:32.442Z,6.93
2022-11-07T22:34:59.188Z,6.40
2022-11-07T22:37:25.979Z,5.95
2022-11-07T22:39:52.954Z,6.93
2022-11-07T22:42:23.673Z,6.68
2022-11-07T22:44:51.700Z,5.72
2022-11-07T22:47:18.496Z,6.35
2022-11-07T22:49:45.470Z,5.97
2022-11-07T22:52:12.335Z,6.80
2022-11-07T22:54:39.170Z,6.03
2022-11-07T22:57:05.868Z,5.80
2022-11-07T22:59:32.862Z,7.32
2022-11-07T23:02:00.362Z,7.30
2022-11-07T23:04:32.541Z,5.93
2022-11-07T23:06:59.862Z,5.82
2022-11-07T23:09:27.183Z,5.97
2022-11-07T23:11:54.043Z,7.53
2022-11-07T23:14:21.983Z,7.50
2022-11-07T23:16:53.849Z,6.43
2022-11-07T23:19:23.223Z,8.52
2022-11-07T23:21:51.467Z,8.02
2022-11-07T23:24:18.660Z,7.40
2022-11-07T23:26:45.506Z,7.10
2022-11-07T23:29:15.158Z,7.68
2022-11-07T23:31:44.127Z,7.82
2022-11-07T23:34:11.566Z,7.43
2022-11-07T23:36:40.873Z,7.78
2022-11-07T23:39:08.924Z,7.20
2022-11-07T23:41:35.782Z,6.32
2022-11-07T23:44:03.526Z,6.82
2022-11-07T23:46:49.612Z,7.20
2022-11-07T23:49:55.205Z,6.55
2022-11-07T23:52:22.210Z,6.72
2022-11-07T23:55:07.615Z,6.22
2022-11-07T23:57:55.999Z,5.68
